createdAt,value
2018-04-04T00:00:48.740Z,30.59
2018-04-04T00:03:15.059Z,30.64
2018-04-04T00:05:41.527Z,30.51
2018-04-04T00:08:07.889Z,30.48
2018-04-04T00:10:34.293Z,30.48
2018-04-04T00:13:00.667Z,30.25
2018-04-04T00:15:27.433Z,30.35
2018-04-04T00:17:53.903Z,30.44
2018-04-04T00:20:20.318Z,30.20
2018-04-04T00:22:46.725Z,30.40
2018-04-04T00:25:13.083Z,30.12
2018-04-04T00:27:39.461Z,30.20
2018-04-04T00:30:05.888Z,30.00
2018-04-04T00:32:32.265Z,30.12
2018-04-04T00:34:58.609Z,30.12
2018-04-04T00:37:25.296Z,30.18
2018-04-04T00:39:51.682Z,30.02
2018-04-04T00:42:18.220Z,30.10
2018-04-04T00:44:44.582Z,30.06
2018-04-04T00:47:11.090Z,30.13
2018-04-04T00:49:37.495Z,30.19
2018-04-04T00:52:03.826Z,29.91
2018-04-04T00:54:30.265Z,30.01
2018-04-04T00:56:56.818Z,29.64
2018-04-04T00:59:23.172Z,29.71
2018-04-04T01:01:50.024Z,30.05
2018-04-04T01:04:16.442Z,29.86
2018-04-04T01:06:42.808Z,30.07
2018-04-04T01:09:09.141Z,29.90
2018-04-04T01:11:35.511Z,29.84
2018-04-04T01:14:02.009Z,30.00
2018-04-04T01:16:28.346Z,30.03
2018-04-04T01:18:54.793Z,29.99
2018-04-04T01:21:21.272Z,30.09
2018-04-04T01:23:47.639Z,29.71
2018-04-04T01:26:14.203Z,29.35
2018-04-04T01:28:40.744Z,29.58
2018-04-04T01:31:07.067Z,29.75
2018-04-04T01:33:33.572Z,29.99
2018-04-04T01:35:59.946Z,30.09
2018-04-04T01:38:26.339Z,30.28
2018-04-04T01:40:52.750Z,30.17
2018-04-04T01:43:19.078Z,30.19
2018-04-04T01:45:45.517Z,30.54
2018-04-04T01:48:11.891Z,30.54
2018-04-04T01:50:38.222Z,30.61
2018-04-04T01:53:04.646Z,30.25
2018-04-04T01:55:30.992Z,30.62
2018-04-04T01:57:57.393Z,30.42
2018-04-04T02:00:23.840Z,30.13
2018-04-04T02:02:50.230Z,30.38
2018-04-04T02:05:16.550Z,30.00
2018-04-04T02:07:42.939Z,30.04
2018-04-04T02:10:09.270Z,29.96
2018-04-04T02:12:35.623Z,30.19
2018-04-04T02:15:02.093Z,29.79
2018-04-04T02:17:28.422Z,29.73
2018-04-04T02:19:54.745Z,29.56
2018-04-04T02:22:21.071Z,29.63
2018-04-04T02:24:47.398Z,29.59
2018-04-04T02:27:13.787Z,29.29
2018-04-04T02:29:40.133Z,29.51
2018-04-04T02:32:06.498Z,29.29
2018-04-04T02:34:32.871Z,29.47
2018-04-04T02:36:59.217Z,29.29
2018-04-04T02:39:25.626Z,29.03
2018-04-04T02:41:51.994Z,29.16
2018-04-04T02:44:18.511Z,29.24
2018-04-04T02:46:44.841Z,29.32
2018-04-04T02:49:11.310Z,29.07
2018-04-04T02:51:37.704Z,29.19
2018-04-04T02:54:04.065Z,29.13
2018-04-04T02:56:30.596Z,29.19
2018-04-04T02:58:56.975Z,29.06
2018-04-04T03:01:23.305Z,29.22
2018-04-04T03:03:49.710Z,29.13
2018-04-04T03:06:16.081Z,29.29
2018-04-04T03:08:42.558Z,29.12
2018-04-04T03:11:08.967Z,28.71
2018-04-04T03:13:35.354Z,28.99
2018-04-04T03:16:01.774Z,28.68
2018-04-04T03:18:28.115Z,29.00
2018-04-04T03:20:54.534Z,29.00
2018-04-04T03:23:20.919Z,28.98
2018-04-04T03:25:47.255Z,28.63
2018-04-04T03:28:13.638Z,28.85
2018-04-04T03:30:40.019Z,28.82
2018-04-04T03:33:06.700Z,28.58
2018-04-04T03:35:33.047Z,28.37
2018-04-04T03:37:59.462Z,28.45
2018-04-04T03:40:25.902Z,28.39
2018-04-04T03:42:52.437Z,28.29
2018-04-04T03:45:18.840Z,28.46
2018-04-04T03:47:45.293Z,28.28
2018-04-04T03:50:11.712Z,28.19
2018-04-04T03:52:38.117Z,28.21
2018-04-04T03:55:04.690Z,28.23
2018-04-04T03:57:31.036Z,28.07
2018-04-04T03:59:57.394Z,28.23
2018-04-04T04:02:23.884Z,28.03
2018-04-04T04:04:50.427Z,27.89
2018-04-04T04:07:16.794Z,27.97
2018-04-04T04:09:43.166Z,27.82
2018-04-04T04:12:09.574Z,27.79
2018-04-04T04:14:36.044Z,27.82
2018-04-04T04:17:02.928Z,27.79
2018-04-04T04:19:29.304Z,27.54
2018-04-04T04:21:55.673Z,27.45
2018-04-04T04:24:22.108Z,27.49
2018-04-04T04:26:48.438Z,27.32
2018-04-04T04:29:14.832Z,27.49
2018-04-04T04:31:41.273Z,27.42
2018-04-04T04:34:07.617Z,27.20
2018-04-04T04:36:34.050Z,27.07
2018-04-04T04:39:00.461Z,27.23
2018-04-04T04:41:26.853Z,26.98
2018-04-04T04:43:53.213Z,27.04
2018-04-04T04:46:19.543Z,27.09
2018-04-04T04:48:46.035Z,27.47
2018-04-04T04:51:12.377Z,27.62
2018-04-04T04:53:38.754Z,27.81
2018-04-04T04:56:05.190Z,27.58
2018-04-04T04:58:31.585Z,27.54
2018-04-04T05:00:58.214Z,27.96
2018-04-04T05:03:24.546Z,27.97
2018-04-04T05:05:50.954Z,27.49
2018-04-04T05:08:17.619Z,27.49
2018-04-04T05:10:44.183Z,27.73
2018-04-04T05:13:10.511Z,27.25
2018-04-04T05:15:36.976Z,27.15
2018-04-04T05:18:04.131Z,27.74
2018-04-04T05:20:30.868Z,27.54
2018-04-04T05:22:57.173Z,27.10
2018-04-04T05:25:23.734Z,27.39
2018-04-04T05:27:50.131Z,27.20
2018-04-04T05:30:17.149Z,27.68
2018-04-04T05:32:43.770Z,27.61
2018-04-04T05:35:10.113Z,27.84
2018-04-04T05:37:36.857Z,27.49
2018-04-04T05:40:06.882Z,27.67
2018-04-04T05:42:33.386Z,27.72
2018-04-04T05:44:59.775Z,27.75
2018-04-04T05:47:26.543Z,28.51
2018-04-04T05:49:53.019Z,27.81
2018-04-04T05:52:19.406Z,27.61
2018-04-04T05:54:45.998Z,27.54
2018-04-04T05:57:12.438Z,27.78
2018-04-04T05:59:39.321Z,27.94
2018-04-04T06:02:06.252Z,27.71
2018-04-04T06:04:32.698Z,27.76
2018-04-04T06:06:59.158Z,28.03
2018-04-04T06:09:26.146Z,27.77
2018-04-04T06:11:53.049Z,27.34
2018-04-04T06:14:19.692Z,27.07
2018-04-04T06:16:46.462Z,27.08
2018-04-04T06:19:12.925Z,26.81
2018-04-04T06:21:39.445Z,27.41
2018-04-04T06:24:05.974Z,27.00
2018-04-04T06:26:32.628Z,26.84
2018-04-04T06:28:59.168Z,27.09
2018-04-04T06:31:25.917Z,26.96
2018-04-04T06:33:52.869Z,26.94
2018-04-04T06:36:19.688Z,26.71
2018-04-04T06:38:47.971Z,26.90
2018-04-04T06:41:14.638Z,26.78
2018-04-04T06:43:41.026Z,27.13
2018-04-04T06:46:07.987Z,26.95
2018-04-04T06:48:34.754Z,26.60
2018-04-04T06:51:01.229Z,26.91
2018-04-04T06:53:27.613Z,26.49
2018-04-04T06:55:54.118Z,26.74
2018-04-04T06:58:20.711Z,27.00
2018-04-04T07:00:47.215Z,27.03
2018-04-04T07:03:13.715Z,27.21
2018-04-04T07:05:40.293Z,26.94
2018-04-04T07:08:07.233Z,27.00
2018-04-04T07:10:33.742Z,27.07
2018-04-04T07:13:00.457Z,26.72
2018-04-04T07:15:27.044Z,26.82
2018-04-04T07:17:53.603Z,26.74
2018-04-04T07:20:20.223Z,27.00
2018-04-04T07:22:46.751Z,26.81
2018-04-04T07:25:13.453Z,26.36
2018-04-04T07:27:40.023Z,26.49
2018-04-04T07:30:06.524Z,26.59
2018-04-04T07:32:34.280Z,26.18
2018-04-04T07:35:00.945Z,26.51
2018-04-04T07:37:27.355Z,26.94
2018-04-04T07:39:54.152Z,26.42
2018-04-04T07:42:21.568Z,26.45
2018-04-04T07:44:48.735Z,26.70
2018-04-04T07:47:15.242Z,26.83
2018-04-04T07:49:41.587Z,26.75
2018-04-04T07:52:08.136Z,27.11
2018-04-04T07:54:34.840Z,26.46
2018-04-04T07:57:02.338Z,26.32
2018-04-04T07:59:28.869Z,26.39
2018-04-04T08:01:55.508Z,26.92
2018-04-04T08:04:22.870Z,26.49
2018-04-04T08:06:49.615Z,26.58
2018-04-04T08:09:16.044Z,26.73
2018-04-04T08:11:43.561Z,26.59
2018-04-04T08:14:10.626Z,26.44
2018-04-04T08:16:37.793Z,26.80
2018-04-04T08:19:06.456Z,26.93
2018-04-04T08:21:33.989Z,26.69
2018-04-04T08:24:01.301Z,26.46
2018-04-04T08:26:29.124Z,26.71
2018-04-04T08:28:56.373Z,26.39
2018-04-04T08:31:23.470Z,26.21
2018-04-04T08:33:50.291Z,26.52
2018-04-04T08:36:17.370Z,26.03
2018-04-04T08:38:44.227Z,26.55
2018-04-04T08:41:12.435Z,26.90
2018-04-04T08:43:39.834Z,26.92
2018-04-04T08:46:10.896Z,26.81
2018-04-04T08:48:39.918Z,26.60
2018-04-04T08:51:06.872Z,26.71
2018-04-04T08:53:37.576Z,26.75
2018-04-04T08:56:05.191Z,26.81
2018-04-04T08:58:36.875Z,26.73
2018-04-04T09:01:04.523Z,26.97
2018-04-04T09:03:32.509Z,26.80
2018-04-04T09:06:00.272Z,26.86
2018-04-04T09:08:27.784Z,27.19
2018-04-04T09:10:54.787Z,26.95
2018-04-04T09:13:21.839Z,27.19
2018-04-04T09:15:48.430Z,27.07
2018-04-04T09:18:14.956Z,27.09
2018-04-04T09:20:41.627Z,27.23
2018-04-04T09:23:08.379Z,27.08
2018-04-04T09:25:34.999Z,27.00
2018-04-04T09:28:01.509Z,27.12
2018-04-04T09:30:27.976Z,27.26
2018-04-04T09:32:54.615Z,27.25
2018-04-04T09:35:21.144Z,27.15
2018-04-04T09:37:48.462Z,26.81
2018-04-04T09:40:15.008Z,26.97
2018-04-04T09:42:41.492Z,26.91
2018-04-04T09:45:08.289Z,26.88
2018-04-04T09:47:34.812Z,26.55
2018-04-04T09:50:01.489Z,26.52
2018-04-04T09:52:27.957Z,26.65
2018-04-04T09:54:54.380Z,26.55
2018-04-04T09:57:22.059Z,26.52
2018-04-04T09:59:49.190Z,26.58
2018-04-04T10:02:16.212Z,26.49
2018-04-04T10:04:42.848Z,26.09
2018-04-04T10:07:09.627Z,26.44
2018-04-04T10:09:37.646Z,26.55
2018-04-04T10:12:05.544Z,26.83
2018-04-04T10:14:32.419Z,26.45
2018-04-04T10:16:58.815Z,26.30
2018-04-04T10:19:26.120Z,26.38
2018-04-04T10:21:52.508Z,26.35
2018-04-04T10:24:19.057Z,26.48
2018-04-04T10:26:45.573Z,26.39
2018-04-04T10:29:12.981Z,26.73
2018-04-04T10:31:39.444Z,26.46
2018-04-04T10:34:05.872Z,26.33
2018-04-04T10:36:33.178Z,26.52
2018-04-04T10:38:59.739Z,26.61
2018-04-04T10:41:26.203Z,26.64
2018-04-04T10:43:52.668Z,26.64
2018-04-04T10:46:20.057Z,26.77
2018-04-04T10:48:46.906Z,26.76
2018-04-04T10:51:15.152Z,26.68
2018-04-04T10:53:43.006Z,26.63
2018-04-04T10:56:09.372Z,26.76
2018-04-04T10:58:36.846Z,27.19
2018-04-04T11:01:03.498Z,27.32
2018-04-04T11:03:29.988Z,27.33
2018-04-04T11:05:56.748Z,27.05
2018-04-04T11:08:23.214Z,27.21
2018-04-04T11:10:49.697Z,27.49
2018-04-04T11:13:16.281Z,27.58
2018-04-04T11:15:43.396Z,27.82
2018-04-04T11:18:12.209Z,27.52
2018-04-04T11:20:38.737Z,27.39
2018-04-04T11:23:06.266Z,27.30
2018-04-04T11:25:32.820Z,27.17
2018-04-04T11:27:59.253Z,27.08
2018-04-04T11:30:25.779Z,27.23
2018-04-04T11:32:52.546Z,27.23
2018-04-04T11:35:19.623Z,27.20
2018-04-04T11:37:46.080Z,27.17
2018-04-04T11:40:13.149Z,27.36
2018-04-04T11:42:40.136Z,27.21
2018-04-04T11:45:07.226Z,27.25
2018-04-04T11:47:34.154Z,27.42
2018-04-04T11:50:00.704Z,27.14
2018-04-04T11:52:27.947Z,27.49
2018-04-04T11:54:54.920Z,27.33
2018-04-04T11:57:22.481Z,27.68
2018-04-04T11:59:49.636Z,27.62
2018-04-04T12:02:16.418Z,27.43
2018-04-04T12:04:42.912Z,27.30
2018-04-04T12:07:09.836Z,27.70
2018-04-04T12:09:36.905Z,27.53
2018-04-04T12:12:03.532Z,27.60
2018-04-04T12:14:30.199Z,27.91
2018-04-04T12:16:56.677Z,27.88
2018-04-04T12:19:23.122Z,27.71
2018-04-04T12:21:49.812Z,27.53
2018-04-04T12:24:16.301Z,27.78
2018-04-04T12:26:42.828Z,27.67
2018-04-04T12:29:09.429Z,27.97
2018-04-04T12:31:35.853Z,27.47
2018-04-04T12:34:02.275Z,27.46
2018-04-04T12:36:28.809Z,27.37
2018-04-04T12:38:56.087Z,27.58
2018-04-04T12:41:22.730Z,27.17
2018-04-04T12:43:49.522Z,27.27
2018-04-04T12:46:16.203Z,27.39
2018-04-04T12:48:43.891Z,27.13
2018-04-04T12:51:10.431Z,27.57
2018-04-04T12:53:37.029Z,26.85
2018-04-04T12:56:03.640Z,26.75
2018-04-04T13:01:02.754Z,27.05
2018-04-04T13:03:29.226Z,26.91
2018-04-04T13:05:57.198Z,26.60
2018-04-04T13:08:23.688Z,26.61
2018-04-04T13:10:50.124Z,26.63
2018-04-04T13:13:16.556Z,26.68
2018-04-04T13:15:44.033Z,26.90
2018-04-04T13:18:10.595Z,26.29
2018-04-04T13:20:45.505Z,26.59
2018-04-04T13:23:12.221Z,26.48
2018-04-04T13:25:38.757Z,26.51
2018-04-04T13:28:05.239Z,26.34
2018-04-04T13:30:31.614Z,26.46
2018-04-04T13:32:58.913Z,26.81
2018-04-04T13:35:25.773Z,26.71
2018-04-04T13:37:52.460Z,26.68
2018-04-04T13:40:19.379Z,26.65
2018-04-04T13:42:45.801Z,26.92
2018-04-04T13:45:12.209Z,26.78
2018-04-04T13:47:38.906Z,26.81
2018-04-04T13:50:05.378Z,26.60
2018-04-04T13:52:32.130Z,26.96
2018-04-04T13:57:31.301Z,27.24
2018-04-04T13:59:57.942Z,26.75
2018-04-04T14:02:24.314Z,26.59
2018-04-04T14:04:50.694Z,26.53
2018-04-04T14:07:17.230Z,26.56
2018-04-04T14:09:44.589Z,26.53
2018-04-04T14:12:10.942Z,26.45
2018-04-04T14:14:37.384Z,26.41
2018-04-04T14:17:03.790Z,26.01
2018-04-04T14:19:30.252Z,25.79
2018-04-04T14:21:56.645Z,25.88
2018-04-04T14:24:23.010Z,26.02
2018-04-04T14:26:49.409Z,25.75
2018-04-04T14:29:15.805Z,25.69
2018-04-04T14:31:42.233Z,25.82
2018-04-04T14:34:08.781Z,25.45
2018-04-04T14:36:35.210Z,25.75
2018-04-04T14:39:01.567Z,25.85
2018-04-04T14:41:27.938Z,26.01
2018-04-04T14:43:54.407Z,25.88
2018-04-04T14:46:21.128Z,25.70
2018-04-04T14:48:47.533Z,25.72
2018-04-04T14:51:14.313Z,26.27
2018-04-04T14:53:40.880Z,26.05
2018-04-04T14:56:07.658Z,26.21
2018-04-04T14:58:35.656Z,26.24
2018-04-04T15:01:02.042Z,25.91
2018-04-04T15:03:28.720Z,25.91
2018-04-04T15:05:55.468Z,25.81
2018-04-04T15:08:21.946Z,25.84
2018-04-04T15:10:48.431Z,25.72
2018-04-04T15:13:14.823Z,25.89
2018-04-04T15:15:41.222Z,25.60
2018-04-04T15:18:07.571Z,25.61
2018-04-04T15:20:33.918Z,25.39
2018-04-04T15:23:00.358Z,25.46
2018-04-04T15:25:26.832Z,25.73
2018-04-04T15:27:53.283Z,26.26
2018-04-04T15:30:20.186Z,25.84
2018-04-04T15:32:47.085Z,25.90
2018-04-04T15:35:13.547Z,25.80
2018-04-04T15:37:42.474Z,25.94
2018-04-04T15:40:09.439Z,25.97
2018-04-04T15:42:36.238Z,26.06
2018-04-04T15:45:03.178Z,26.00
2018-04-04T15:47:29.776Z,26.15
2018-04-04T15:49:56.153Z,26.12
2018-04-04T15:52:23.536Z,26.23
2018-04-04T15:54:49.859Z,26.26
2018-04-04T15:57:16.229Z,26.34
2018-04-04T15:59:42.557Z,26.17
2018-04-04T16:02:08.994Z,26.36
2018-04-04T16:04:35.848Z,26.25
2018-04-04T16:07:02.594Z,26.17
2018-04-04T16:09:29.050Z,26.48
2018-04-04T16:11:55.372Z,26.46
2018-04-04T16:14:21.817Z,25.64
2018-04-04T16:16:48.229Z,26.27
2018-04-04T16:19:14.651Z,26.10
2018-04-04T16:21:41.096Z,25.65
2018-04-04T16:24:07.577Z,25.25
2018-04-04T16:26:34.003Z,24.79
2018-04-04T16:29:00.389Z,24.79
2018-04-04T16:31:26.742Z,25.21
2018-04-04T16:33:53.127Z,24.69
2018-04-04T16:36:19.639Z,24.88
2018-04-04T16:38:46.007Z,24.89
2018-04-04T16:41:12.352Z,24.37
2018-04-04T16:43:38.763Z,23.70
2018-04-04T16:46:05.112Z,24.03
2018-04-04T16:48:31.478Z,23.96
2018-04-04T16:51:05.508Z,23.88
2018-04-04T16:53:31.842Z,23.85
2018-04-04T16:55:58.217Z,23.58
2018-04-04T16:58:24.568Z,24.17
2018-04-04T17:11:04.082Z,23.17
2018-04-04T17:13:30.470Z,23.76
2018-04-04T17:15:56.785Z,24.09
2018-04-04T17:18:23.191Z,24.14
2018-04-04T17:20:49.566Z,24.48
2018-04-04T17:23:15.947Z,23.85
2018-04-04T17:25:42.307Z,23.91
2018-04-04T17:28:08.644Z,24.07
2018-04-04T17:30:34.976Z,24.07
2018-04-04T17:33:01.290Z,22.97
2018-04-04T17:35:27.650Z,23.56
2018-04-04T17:37:54.134Z,23.62
2018-04-04T17:40:28.521Z,23.76
2018-04-04T17:42:54.933Z,23.34
2018-04-04T17:45:21.629Z,23.73
2018-04-04T17:47:47.997Z,23.56
2018-04-04T17:50:14.340Z,23.20
2018-04-04T17:52:40.739Z,23.57
2018-04-04T17:55:07.142Z,23.21
2018-04-04T17:57:33.472Z,23.89
2018-04-04T18:15:08.824Z,24.06
2018-04-04T18:17:35.330Z,24.22
2018-04-04T18:20:01.657Z,24.25
2018-04-04T18:22:28.018Z,24.49
2018-04-04T18:24:54.460Z,24.32
2018-04-04T18:27:20.862Z,24.34
2018-04-04T18:29:54.979Z,24.40
2018-04-04T18:32:21.318Z,24.40
2018-04-04T18:34:47.777Z,24.53
2018-04-04T18:37:14.430Z,24.66
2018-04-04T18:39:40.801Z,24.44
2018-04-04T18:42:07.178Z,24.78
2018-04-04T18:44:33.558Z,24.79
2018-04-04T18:46:59.983Z,25.02
2018-04-04T18:49:26.341Z,25.04
2018-04-04T18:51:52.667Z,25.12
2018-04-04T18:54:18.984Z,24.90
2018-04-04T18:56:45.366Z,24.85
2018-04-04T18:59:11.827Z,24.79
2018-04-04T19:01:38.477Z,24.82
2018-04-04T19:04:04.815Z,24.67
2018-04-04T19:06:31.300Z,24.76
2018-04-04T19:08:57.849Z,24.72
2018-04-04T19:11:24.339Z,24.85
2018-04-04T19:13:50.937Z,24.84
2018-04-04T19:16:17.466Z,24.97
2018-04-04T19:33:52.732Z,25.54
2018-04-04T19:36:19.075Z,25.52
2018-04-04T19:38:45.386Z,25.53
2018-04-04T19:41:11.742Z,25.76
2018-04-04T19:43:38.091Z,25.64
2018-04-04T19:46:04.433Z,25.84
2018-04-04T19:51:09.421Z,25.87
2018-04-04T19:53:35.773Z,25.87
2018-04-04T19:56:02.213Z,26.08
2018-04-04T19:58:28.673Z,26.00
2018-04-04T20:00:55.115Z,25.99
2018-04-04T20:03:21.493Z,26.22
2018-04-04T20:05:47.809Z,26.06
2018-04-04T20:08:14.139Z,26.26
2018-04-04T20:10:47.724Z,26.45
2018-04-04T20:13:14.234Z,26.43
2018-04-04T20:15:40.565Z,26.44
2018-04-04T20:18:07.023Z,26.56
2018-04-04T20:33:46.182Z,26.84
2018-04-04T20:36:12.550Z,26.68
2018-04-04T20:38:38.903Z,26.68
2018-04-04T20:41:05.237Z,27.00
2018-04-04T20:43:31.598Z,27.00
2018-04-04T20:45:58.050Z,27.12
2018-04-04T20:48:24.532Z,27.20
2018-04-04T20:50:58.670Z,27.12
2018-04-04T20:53:25.000Z,27.19
2018-04-04T21:13:32.135Z,27.55
2018-04-04T21:15:58.522Z,27.59
2018-04-04T21:18:24.896Z,27.70
2018-04-04T21:20:51.380Z,27.76
2018-04-04T21:23:17.901Z,27.82
2018-04-04T21:25:44.455Z,27.81
2018-04-04T21:28:10.914Z,27.86
2018-04-04T21:30:44.630Z,27.86
2018-04-04T21:33:11.015Z,28.02
2018-04-04T21:35:37.352Z,27.96
2018-04-04T21:38:03.710Z,28.25
2018-04-04T21:40:30.022Z,28.13
2018-04-04T21:42:56.479Z,28.12
2018-04-04T21:45:22.875Z,28.37
2018-04-04T21:47:49.219Z,28.39
2018-04-04T21:50:23.625Z,28.34
2018-04-04T21:52:49.978Z,28.37
2018-04-04T21:55:16.457Z,28.24
2018-04-04T21:57:42.782Z,28.41
2018-04-04T22:00:09.129Z,28.57
2018-04-04T22:02:35.622Z,28.70
2018-04-04T22:05:02.087Z,28.57
2018-04-04T22:07:28.462Z,28.62
2018-04-04T22:09:54.834Z,28.65
2018-04-04T22:12:21.299Z,28.81
2018-04-04T22:14:47.690Z,28.88
2018-04-04T22:17:14.123Z,29.01
2018-04-04T22:19:48.034Z,29.08
2018-04-04T22:22:14.370Z,28.99
2018-04-04T22:24:40.721Z,28.94
2018-04-04T22:27:07.069Z,29.10
2018-04-04T22:40:14.974Z,29.70
2018-04-04T22:42:41.511Z,29.64
2018-04-04T22:45:07.946Z,29.79
2018-04-04T22:47:34.309Z,29.91
2018-04-04T22:50:00.765Z,29.90
2018-04-04T22:52:27.136Z,30.00
2018-04-04T22:54:53.472Z,30.06
2018-04-04T22:57:19.804Z,30.11
2018-04-04T22:59:46.143Z,30.17
2018-04-04T23:02:12.698Z,30.18
2018-04-04T23:04:39.141Z,30.23
2018-04-04T23:07:05.480Z,30.20
2018-04-04T23:09:31.797Z,30.16
2018-04-04T23:11:58.153Z,30.18
2018-04-04T23:14:24.543Z,30.14
2018-04-04T23:16:51.011Z,30.45
2018-04-04T23:19:25.294Z,30.35
2018-04-04T23:21:51.626Z,30.38
2018-04-04T23:24:18.033Z,30.42
2018-04-04T23:26:44.426Z,30.36
2018-04-04T23:39:52.276Z,30.35
2018-04-04T23:42:18.654Z,30.31
2018-04-04T23:44:45.055Z,30.51
2018-04-04T23:47:11.377Z,30.42
2018-04-04T23:49:37.895Z,30.45
2018-04-04T23:52:04.285Z,30.57
2018-04-04T23:54:30.775Z,30.48
2018-04-04T23:56:57.257Z,30.49
2018-04-04T23:59:30.914Z,30.59
